Joplin, Montana
Current Conditions -  °F | °C
As of 5:53 AM on Friday 28 Nov 2014 (Local Time) from KHVR Reporting Station
Moderate Fog Moderate Fog  
Wind Chill: 22°   Ceiling: 200
Heat Index: 28°   Visibility: 0.25mi
Dew Point: 26°   Wind: 6mph
Humidity: 92%   Direction: 70°ENE
Pressure: 29.52"   Gusts: NA
Location:  48.56°N, 110.78°W
Report Text: KHVR 281253Z AUTO 07005KT 1/4SM FZFG VV002 M02/M03 A2952 RMK AO2 SLP021 I1002 T10221033
Loading
Personal Weather Stations






























Interactive Weather Map New forecast layout! Learn more

10-Day Weather Forecast

Advertisements
Track Severe Weather on mobile